Time;durP1;ratioP1;P1;durP2;ratioP2;P2;SDS_P1;SDS_P2;PMS_P1;PMS_P2;Temp;Humidity;BMP_temperature;BMP_pressure;BME280_temperature;BME280_humidity;BME280_pressure;Samples;Min_cycle;Max_cycle;Signal;HPM_P1;HPM_P2
2023/12/06 00:01:48;;;;;;;3.28;3.08;;;;;;;4.10;100.00;62420.41;5026404;28;20241;-76
2023/12/06 00:04:16;;;;;;;2.95;2.75;;;;;;;3.92;100.00;62404.91;5023959;28;20274;-75
2023/12/06 00:06:43;;;;;;;3.20;2.90;;;;;;;3.99;100.00;62401.53;5025833;28;20227;-76
2023/12/06 00:09:10;;;;;;;3.90;3.25;;;;;;;3.96;100.00;62408.53;5026798;28;20213;-76
2023/12/06 00:11:37;;;;;;;3.85;3.35;;;;;;;3.79;100.00;62389.03;5023953;28;20257;-75
2023/12/06 00:14:04;;;;;;;3.50;3.05;;;;;;;3.87;100.00;62394.75;5022994;28;20261;-76
2023/12/06 00:16:31;;;;;;;4.15;3.35;;;;;;;3.86;100.00;62393.72;5021972;28;20195;-76
2023/12/06 00:18:58;;;;;;;3.15;2.83;;;;;;;3.89;100.00;62401.31;5022251;28;20404;-76
2023/12/06 00:21:26;;;;;;;3.03;2.63;;;;;;;3.90;100.00;62399.84;5024781;28;20213;-75
2023/12/06 00:23:53;;;;;;;7.15;4.70;;;;;;;3.93;100.00;62405.44;5024485;28;20202;-75
2023/12/06 00:26:21;;;;;;;5.05;3.13;;;;;;;3.96;100.00;62408.53;5017624;28;20209;-76
2023/12/06 00:28:48;;;;;;;3.20;2.80;;;;;;;3.97;100.00;62404.53;5019781;28;20207;-75
2023/12/06 00:31:15;;;;;;;3.05;2.85;;;;;;;3.83;100.00;62388.09;5023492;28;20209;-76
2023/12/06 00:33:42;;;;;;;3.28;2.97;;;;;;;3.82;100.00;62394.13;5025166;28;20234;-77
2023/12/06 00:36:10;;;;;;;3.45;2.90;;;;;;;3.93;100.00;62400.91;5024039;28;20211;-76
2023/12/06 00:38:39;;;;;;;4.22;3.60;;;;;;;3.94;100.00;62403.94;5025845;28;20236;-76
2023/12/06 00:41:06;;;;;;;6.32;4.97;;;;;;;3.92;100.00;62404.91;5012153;28;20230;-77
2023/12/06 00:43:33;;;;;;;7.88;4.97;;;;;;;3.95;100.00;62404.97;5012425;28;20218;-76
2023/12/06 00:45:59;;;;;;;5.25;4.68;;;;;;;3.95;100.00;62404.97;5017619;28;20207;-76
2023/12/06 00:48:26;;;;;;;4.55;4.10;;;;;;;3.86;100.00;62398.25;5024803;28;20253;-76
2023/12/06 00:50:53;;;;;;;10.38;4.90;;;;;;;3.64;100.00;62376.13;5023709;28;20229;-76
2023/12/06 00:53:20;;;;;;;4.68;4.13;;;;;;;3.58;100.00;62372.47;5024771;28;20294;-76
2023/12/06 00:55:48;;;;;;;4.65;3.40;;;;;;;3.54;100.00;62358.81;5024898;28;20386;-76
2023/12/06 00:58:15;;;;;;;2.85;2.65;;;;;;;3.54;100.00;62360.81;5024368;28;20424;-76
2023/12/06 01:00:43;;;;;;;3.13;2.88;;;;;;;3.51;100.00;62355.22;5014548;28;20199;-77
2023/12/06 01:03:10;;;;;;;3.10;2.90;;;;;;;3.49;100.00;62358.19;5019546;28;20250;-76
2023/12/06 01:05:36;;;;;;;3.08;2.85;;;;;;;3.41;100.00;62347.97;5011238;28;20206;-76
2023/12/06 01:08:03;;;;;;;2.70;2.60;;;;;;;3.43;100.00;62347.00;5025242;28;20264;-75
2023/12/06 01:10:31;;;;;;;3.10;2.80;;;;;;;3.31;100.00;62337.16;5025160;28;20501;-75
2023/12/06 01:12:59;;;;;;;2.40;2.22;;;;;;;3.28;100.00;62336.59;5022134;28;20223;-75
2023/12/06 01:15:26;;;;;;;3.38;3.08;;;;;;;3.26;100.00;62334.53;5013934;28;20234;-76
2023/12/06 01:17:53;;;;;;;3.55;3.25;;;;;;;3.12;100.00;62320.66;5008184;28;20215;-75
2023/12/06 01:20:20;;;;;;;2.95;2.72;;;;;;;3.13;100.00;62318.66;5006226;28;20207;-76
2023/12/06 01:22:47;;;;;;;4.05;3.72;;;;;;;3.05;100.00;62310.97;5024221;28;20223;-75
2023/12/06 01:25:14;;;;;;;2.95;2.75;;;;;;;3.12;100.00;62317.63;5024897;28;20213;-75
2023/12/06 01:27:41;;;;;;;4.32;3.95;;;;;;;3.21;100.00;62321.84;5023797;28;20418;-75
2023/12/06 01:30:10;;;;;;;8.70;4.68;;;;;;;3.17;100.00;62320.78;5014776;28;20593;-76
2023/12/06 01:32:37;;;;;;;6.03;3.75;;;;;;;3.27;100.00;62338.59;5023482;28;20226;-76
2023/12/06 01:35:05;;;;;;;3.75;3.42;;;;;;;3.26;100.00;62329.50;5024532;28;20242;-75
2023/12/06 01:37:32;;;;;;;4.00;3.70;;;;;;;3.22;100.00;62332.94;5023801;28;20350;-75
2023/12/06 01:39:58;;;;;;;3.85;3.40;;;;;;;3.26;100.00;62334.53;5025306;28;20214;-76
2023/12/06 01:42:26;;;;;;;5.32;4.57;;;;;;;3.30;100.00;62339.16;5025001;28;20230;-75
2023/12/06 01:44:53;;;;;;;5.05;4.55;;;;;;;3.26;100.00;62324.47;5021229;28;20519;-74
2023/12/06 01:47:23;;;;;;;5.07;4.30;;;;;;;3.29;100.00;62335.09;5022921;28;20246;-75
2023/12/06 01:49:52;;;;;;;4.60;3.80;;;;;;;3.28;100.00;62339.63;5024648;28;20218;-75
2023/12/06 01:52:19;;;;;;;4.38;3.55;;;;;;;3.34;100.00;62340.75;5022785;28;20223;-76
2023/12/06 01:54:46;;;;;;;5.60;4.30;;;;;;;3.36;100.00;62345.34;5023797;28;20242;-76
2023/12/06 01:57:13;;;;;;;3.55;3.25;;;;;;;3.44;100.00;62356.06;5024545;28;20297;-76
2023/12/06 01:59:42;;;;;;;3.30;3.00;;;;;;;3.38;100.00;62341.84;5024414;28;20207;-75
2023/12/06 02:02:09;;;;;;;4.45;4.03;;;;;;;3.40;100.00;62348.91;5015325;28;20513;-75
2023/12/06 02:04:39;;;;;;;3.67;3.38;;;;;;;3.36;100.00;62342.81;5024038;28;20209;-77
2023/12/06 02:07:06;;;;;;;6.30;5.68;;;;;;;3.43;100.00;62352.03;5023203;28;20566;-76
2023/12/06 02:09:32;;;;;;;4.40;3.58;;;;;;;3.31;100.00;62339.69;5024018;28;20410;-76
2023/12/06 02:11:59;;;;;;;4.65;3.58;;;;;;;3.37;100.00;62343.84;5024426;28;20227;-76
2023/12/06 02:14:27;;;;;;;3.33;3.03;;;;;;;3.37;100.00;62343.84;5006189;28;20241;-75
2023/12/06 02:16:54;;;;;;;3.05;2.78;;;;;;;3.37;100.00;62348.34;5011533;28;20410;-75
2023/12/06 02:19:29;;;;;;;2.65;2.45;;;;;;;3.37;100.00;62341.31;5023688;28;20269;-75
2023/12/06 02:21:58;;;;;;;2.15;2.05;;;;;;;3.40;100.00;62354.47;5022491;28;20513;-76
2023/12/06 02:24:28;;;;;;;2.33;2.08;;;;;;;3.45;100.00;62349.53;5023691;28;20202;-75
2023/12/06 02:26:56;;;;;;;3.85;2.95;;;;;;;3.51;100.00;62355.22;5023070;28;20230;-76
2023/12/06 02:29:24;;;;;;;2.80;2.60;;;;;;;3.47;100.00;62353.59;5019451;28;20227;-76
2023/12/06 02:31:51;;;;;;;2.65;2.45;;;;;;;3.54;100.00;62361.31;5005382;28;20235;-77
2023/12/06 02:34:22;;;;;;;2.60;2.42;;;;;;;3.61;100.00;62370.53;5003937;28;20246;-75
2023/12/06 02:36:52;;;;;;;2.67;2.47;;;;;;;3.62;100.00;62371.03;5013850;28;20222;-75
2023/12/06 02:39:19;;;;;;;2.67;2.47;;;;;;;3.61;100.00;62370.53;5027277;28;20206;-75
2023/12/06 02:41:46;;;;;;;2.50;2.40;;;;;;;3.77;100.00;62386.97;5027026;28;20408;-75
2023/12/06 02:44:15;;;;;;;3.28;2.70;;;;;;;3.76;100.00;62388.47;5024848;28;20574;-75
2023/12/06 02:46:42;;;;;;;2.67;2.47;;;;;;;3.80;100.00;62384.50;5023066;28;20249;-75
2023/12/06 02:49:09;;;;;;;2.13;2.03;;;;;;;3.85;100.00;62394.69;5027218;28;20272;-76
2023/12/06 02:51:36;;;;;;;2.60;2.40;;;;;;;3.83;100.00;62395.66;5026016;28;20207;-76
2023/12/06 02:54:03;;;;;;;2.70;2.45;;;;;;;3.91;100.00;62398.34;5039156;28;20234;-76
2023/12/06 02:56:30;;;;;;;3.10;2.78;;;;;;;3.91;100.00;62403.38;5027288;28;20207;-75
2023/12/06 02:58:57;;;;;;;2.28;2.10;;;;;;;3.95;100.00;62404.97;5019960;28;20376;-76
2023/12/06 03:01:25;;;;;;;2.50;2.30;;;;;;;3.92;100.00;62399.38;5017592;28;20580;-76
2023/12/06 03:03:52;;;;;;;2.33;2.22;;;;;;;3.97;100.00;62409.56;5025661;28;20595;-76
2023/12/06 03:06:19;;;;;;;3.83;2.22;;;;;;;3.94;100.00;62401.94;5026896;28;20230;-76
2023/12/06 03:08:48;;;;;;;2.40;2.20;;;;;;;4.01;100.00;62409.16;5025992;28;20519;-75
2023/12/06 03:11:15;;;;;;;2.25;2.05;;;;;;;3.99;100.00;62409.09;5026851;28;20563;-76
2023/12/06 03:13:41;;;;;;;1.98;1.77;;;;;;;3.94;100.00;62408.97;5027100;28;20226;-76
2023/12/06 03:16:09;;;;;;;2.40;2.20;;;;;;;3.99;100.00;62409.09;5024063;28;20359;-74
2023/12/06 03:18:37;;;;;;;2.55;2.28;;;;;;;4.05;100.00;62412.75;5011787;28;20211;-76
2023/12/06 03:21:05;;;;;;;2.17;2.00;;;;;;;4.02;100.00;62409.66;5024335;28;20253;-74
2023/12/06 03:23:32;;;;;;;2.65;2.45;;;;;;;4.05;100.00;62412.75;5026270;28;20230;-75
2023/12/06 03:25:59;;;;;;;2.70;2.50;;;;;;;4.07;100.00;62414.81;5026916;28;20216;-76
2023/12/06 03:28:26;;;;;;;2.70;2.50;;;;;;;4.10;100.00;62420.94;5026820;28;20222;-77
2023/12/06 03:30:52;;;;;;;2.25;2.15;;;;;;;4.12;100.00;62417.44;5010191;28;20207;-76
2023/12/06 03:33:19;;;;;;;2.42;2.22;;;;;;;4.12;100.00;62423.00;5014799;28;20531;-76
2023/12/06 03:35:48;;;;;;;4.07;2.50;;;;;;;4.11;100.00;62418.91;5025514;28;20266;-74
2023/12/06 03:38:15;;;;;;;2.80;2.50;;;;;;;4.10;100.00;62420.94;5017567;28;20223;-75
2023/12/06 03:40:42;;;;;;;2.60;2.45;;;;;;;4.08;100.00;62418.88;5020717;28;20207;-75
2023/12/06 03:43:09;;;;;;;2.75;2.55;;;;;;;4.15;100.00;62428.06;5017572;28;20227;-76
2023/12/06 03:45:36;;;;;;;2.70;2.50;;;;;;;4.13;100.00;62421.50;5016536;28;20245;-76
2023/12/06 03:48:03;;;;;;;2.22;2.03;;;;;;;4.14;100.00;62419.50;5025206;28;20430;-76
2023/12/06 03:50:30;;;;;;;2.22;2.13;;;;;;;4.14;100.00;62427.06;5024480;28;20217;-76
2023/12/06 03:52:58;;;;;;;2.58;2.38;;;;;;;4.17;100.00;62425.63;5024577;28;20218;-76
2023/12/06 03:55:25;;;;;;;2.13;1.92;;;;;;;4.24;100.00;62435.34;5025207;28;20234;-76
2023/12/06 03:57:52;;;;;;;2.30;2.20;;;;;;;4.22;100.00;62430.22;5025569;28;20259;-76
2023/12/06 04:00:19;;;;;;;4.03;2.58;;;;;;;4.24;100.00;62430.28;5025785;28;20206;-76
2023/12/06 04:02:47;;;;;;;2.22;2.03;;;;;;;4.30;100.00;62438.97;5023490;28;20261;-76
2023/12/06 04:05:14;;;;;;;2.50;2.33;;;;;;;4.23;100.00;62431.78;5012000;28;20218;-76
2023/12/06 04:07:41;;;;;;;2.08;1.98;;;;;;;4.33;100.00;62442.06;5024628;28;20238;-76
2023/12/06 04:10:10;;;;;;;2.70;2.50;;;;;;;4.37;100.00;62448.69;5024479;28;20203;-76
2023/12/06 04:12:38;;;;;;;2.30;2.20;;;;;;;4.50;100.00;62462.06;5016443;28;20273;-75
2023/12/06 04:15:06;;;;;;;2.28;2.15;;;;;;;4.45;100.00;62454.41;5025554;28;20245;-77
2023/12/06 04:17:33;;;;;;;2.22;2.13;;;;;;;4.41;100.00;62455.34;5024255;28;20298;-76
2023/12/06 04:20:00;;;;;;;2.40;2.30;;;;;;;4.45;100.00;62453.91;5021376;28;20464;-77
2023/12/06 04:22:28;;;;;;;1.85;1.75;;;;;;;4.36;100.00;62445.16;5025909;28;20523;-76
2023/12/06 04:24:55;;;;;;;2.10;2.00;;;;;;;4.43;100.00;62454.88;5023631;28;20210;-77
2023/12/06 04:27:23;;;;;;;1.88;1.77;;;;;;;4.39;100.00;62448.25;5025958;28;20269;-77
2023/12/06 04:29:50;;;;;;;2.33;2.22;;;;;;;4.37;100.00;62448.19;5025002;28;20476;-77
2023/12/06 04:32:17;;;;;;;3.28;3.08;;;;;;;4.48;100.00;62460.03;5022451;28;20242;-76
2023/12/06 04:34:52;;;;;;;2.75;2.55;;;;;;;4.55;100.00;62471.75;5019585;28;20238;-74
2023/12/06 04:37:19;;;;;;;2.63;2.47;;;;;;;4.59;100.00;62470.84;5026597;28;20234;-76
2023/12/06 04:39:46;;;;;;;2.88;2.67;;;;;;;4.53;100.00;62462.13;5014810;28;20339;-76
2023/12/06 04:42:14;;;;;;;2.70;2.50;;;;;;;4.63;100.00;62474.94;5015055;28;20223;-76
2023/12/06 04:44:45;;;;;;;2.85;2.50;;;;;;;4.62;100.00;62471.91;5020016;28;20198;-77
2023/12/06 04:47:11;;;;;;;2.60;2.50;;;;;;;4.63;100.00;62472.44;5006087;28;20235;-76
2023/12/06 04:49:38;;;;;;;3.08;2.72;;;;;;;4.74;100.00;62484.25;5013608;28;20236;-75
2023/12/06 04:52:06;;;;;;;2.90;2.60;;;;;;;4.76;100.00;62493.38;5025639;28;20237;-76
2023/12/06 04:54:33;;;;;;;2.45;2.33;;;;;;;4.84;100.00;62488.47;5024792;28;20274;-75
2023/12/06 04:57:00;;;;;;;2.63;2.42;;;;;;;4.87;100.00;62496.63;5026013;28;20293;-77
2023/12/06 04:59:26;;;;;;;3.30;2.35;;;;;;;4.90;100.00;62502.75;5024217;28;20377;-76
2023/12/06 05:01:55;;;;;;;2.65;2.47;;;;;;;4.94;100.00;62506.88;5022314;28;20231;-77
2023/12/06 05:04:23;;;;;;;3.08;2.83;;;;;;;5.02;100.00;62517.63;5025628;28;20207;-75
2023/12/06 05:06:50;;;;;;;3.55;3.25;;;;;;;5.14;100.00;62526.94;5024943;28;20227;-77
2023/12/06 05:09:17;;;;;;;5.30;3.25;;;;;;;5.14;100.00;62524.94;5018300;28;20199;-76
2023/12/06 05:11:44;;;;;;;3.20;3.00;;;;;;;5.19;100.00;62527.56;5019639;28;20234;-77
2023/12/06 05:14:11;;;;;;;3.58;2.80;;;;;;;5.21;100.00;62534.66;5022910;28;20205;-75
2023/12/06 05:16:38;;;;;;;3.50;3.20;;;;;;;5.17;100.00;62525.50;5022564;28;20519;-76
2023/12/06 05:19:07;;;;;;;2.83;2.63;;;;;;;5.25;100.00;62536.25;5005542;28;20615;-76
2023/12/06 05:21:34;;;;;;;2.53;2.33;;;;;;;5.32;100.00;62545.47;5005879;28;20215;-76
2023/12/06 05:24:01;;;;;;;2.45;2.25;;;;;;;5.30;100.00;62541.41;5025138;28;20217;-76
2023/12/06 05:26:28;;;;;;;3.25;3.00;;;;;;;5.34;100.00;62548.06;5033524;28;20225;-75
2023/12/06 05:28:55;;;;;;;2.90;2.60;;;;;;;5.37;100.00;62548.09;5026112;28;20206;-77
2023/12/06 05:31:23;;;;;;;2.63;2.28;;;;;;;5.32;100.00;62543.47;5021715;28;20266;-75
2023/12/06 05:33:50;;;;;;;3.55;3.22;;;;;;;5.29;100.00;62540.38;5024244;28;20258;-75
2023/12/06 05:36:18;;;;;;;3.75;3.45;;;;;;;5.30;100.00;62543.41;5019563;28;20338;-76
2023/12/06 05:38:45;;;;;;;3.75;3.45;;;;;;;5.32;100.00;62545.47;5023767;28;20207;-77
2023/12/06 05:41:12;;;;;;;4.72;3.85;;;;;;;5.38;100.00;62549.66;5023121;28;20211;-75
2023/12/06 05:43:39;;;;;;;7.53;4.88;;;;;;;5.42;100.00;62555.78;5024435;28;20578;-76
2023/12/06 05:46:07;;;;;;;8.65;5.18;;;;;;;5.48;100.00;62556.91;5021411;28;20267;-76
2023/12/06 05:48:34;;;;;;;5.82;4.63;;;;;;;5.47;100.00;62560.94;5019572;28;20230;-76
2023/12/06 05:51:01;;;;;;;9.63;4.75;;;;;;;5.50;100.00;62564.03;5018121;28;20199;-76
2023/12/06 05:53:29;;;;;;;5.65;4.57;;;;;;;5.53;100.00;62562.59;5022802;28;20230;-75
2023/12/06 05:55:56;;;;;;;5.47;3.88;;;;;;;5.53;100.00;62570.16;5020366;28;20222;-75
2023/12/06 05:58:24;;;;;;;5.22;4.57;;;;;;;5.53;100.00;62569.63;5018737;28;20231;-75
2023/12/06 06:00:51;;;;;;;7.22;4.55;;;;;;;5.56;100.00;62570.19;5023771;28;20230;-77
2023/12/06 06:03:18;;;;;;;5.95;3.80;;;;;;;5.51;100.00;62565.06;5022941;28;20561;-77
2023/12/06 06:05:45;;;;;;;5.53;4.75;;;;;;;5.51;100.00;62565.06;5012418;28;20218;-75
2023/12/06 06:08:12;;;;;;;5.50;4.43;;;;;;;5.46;100.00;62557.91;5024235;28;20238;-77
2023/12/06 06:10:41;;;;;;;7.53;4.07;;;;;;;5.33;100.00;62547.03;5016194;28;20244;-76
2023/12/06 06:13:07;;;;;;;6.82;5.55;;;;;;;5.25;100.00;62535.75;5021751;28;20223;-76
2023/12/06 06:15:35;;;;;;;5.47;4.47;;;;;;;5.03;100.00;62511.09;5027809;28;20226;-77
2023/12/06 06:18:05;;;;;;;7.03;4.78;;;;;;;4.99;100.00;62508.97;5025137;28;20249;-78
2023/12/06 06:20:32;;;;;;;9.18;6.10;;;;;;;4.86;100.00;62495.59;5021578;28;20262;-76
2023/12/06 06:22:59;;;;;;;5.85;4.70;;;;;;;4.92;100.00;62504.28;5026160;28;20226;-76
2023/12/06 06:25:26;;;;;;;6.28;5.20;;;;;;;5.01;100.00;62511.56;5024951;28;20199;-76
2023/12/06 06:27:55;;;;;;;5.95;4.78;;;;;;;5.10;100.00;62520.81;5023629;28;20297;-77
2023/12/06 06:30:21;;;;;;;5.85;5.25;;;;;;;5.04;100.00;62516.66;5025152;28;20453;-76
2023/12/06 06:32:48;;;;;;;7.22;5.60;;;;;;;5.14;100.00;62526.94;5025940;28;20229;-77
2023/12/06 06:35:16;;;;;;;7.85;5.60;;;;;;;5.21;100.00;62534.66;5023436;28;20428;-78
2023/12/06 06:37:43;;;;;;;10.13;6.88;;;;;;;5.25;100.00;62538.78;5024216;28;20294;-76
2023/12/06 06:40:11;;;;;;;8.77;7.10;;;;;;;5.26;100.00;62541.84;5023351;28;20207;-76
2023/12/06 06:42:37;;;;;;;12.45;8.30;;;;;;;5.35;100.00;62548.59;5026154;28;20215;-77
2023/12/06 06:45:08;;;;;;;17.65;12.65;;;;;;;5.30;100.00;62540.88;5026362;28;20210;-76
2023/12/06 06:47:36;;;;;;;18.60;11.20;;;;;;;5.27;100.00;62538.31;5026734;28;20257;-76
2023/12/06 06:50:03;;;;;;;14.65;8.38;;;;;;;5.36;100.00;62550.13;5023312;28;20260;-76
2023/12/06 06:52:30;;;;;;;8.43;6.72;;;;;;;5.32;100.00;62545.47;5026213;28;20253;-77
2023/12/06 06:54:57;;;;;;;8.35;6.50;;;;;;;5.41;100.00;62554.75;5026138;28;20543;-77
2023/12/06 06:57:25;;;;;;;8.18;5.97;;;;;;;5.48;100.00;62556.91;5023670;28;20225;-76
2023/12/06 06:59:52;;;;;;;7.18;5.25;;;;;;;5.52;100.00;62566.09;5025891;28;20584;-77
2023/12/06 07:02:20;;;;;;;6.32;5.65;;;;;;;5.62;100.00;62571.84;5025394;28;20238;-75
2023/12/06 07:04:48;;;;;;;4.47;4.07;;;;;;;5.75;100.00;62592.81;5027202;28;20203;-76
2023/12/06 07:07:14;;;;;;;4.32;4.03;;;;;;;5.74;100.00;62589.28;5024438;28;20225;-76
2023/12/06 07:09:42;;;;;;;5.75;4.78;;;;;;;5.79;100.00;62591.91;5026685;28;20237;-77
2023/12/06 07:12:10;;;;;;;8.00;4.90;;;;;;;5.85;100.00;62597.56;5018697;28;20300;-75
2023/12/06 07:14:38;;;;;;;4.95;4.10;;;;;;;5.82;100.00;62597.53;5022709;28;20230;-75
2023/12/06 07:17:05;;;;;;;4.03;3.63;;;;;;;5.98;100.00;62613.00;5024071;28;20230;-76
2023/12/06 07:19:34;;;;;;;5.25;3.35;;;;;;;6.08;100.00;62623.81;5024730;28;20199;-77
2023/12/06 07:22:00;;;;;;;6.07;5.43;;;;;;;6.03;100.00;62613.09;5025609;28;20234;-75
2023/12/06 07:24:27;;;;;;;6.85;4.70;;;;;;;6.08;100.00;62621.28;5024867;28;20265;-76
2023/12/06 07:26:55;;;;;;;7.80;5.70;;;;;;;5.98;100.00;62616.03;5026817;28;20223;-76
2023/12/06 07:29:22;;;;;;;6.55;5.50;;;;;;;5.96;100.00;62613.44;5025374;28;20458;-75
2023/12/06 07:31:50;;;;;;;6.82;5.57;;;;;;;5.97;100.00;62607.41;5022448;28;20457;-76
2023/12/06 07:34:17;;;;;;;7.25;5.82;;;;;;;5.87;100.00;62597.09;5026374;28;20241;-76
2023/12/06 07:36:46;;;;;;;7.00;5.75;;;;;;;5.74;100.00;62588.75;5012960;28;20242;-76
2023/12/06 07:39:14;;;;;;;6.43;5.03;;;;;;;5.68;100.00;62583.09;5026785;28;20298;-76
2023/12/06 07:41:41;;;;;;;6.28;5.68;;;;;;;5.60;100.00;62574.84;5026944;28;20238;-76
2023/12/06 07:44:08;;;;;;;7.07;5.55;;;;;;;5.60;100.00;62572.31;5026362;28;20234;-75
2023/12/06 07:46:35;;;;;;;9.23;7.13;;;;;;;5.67;100.00;62587.13;5025885;28;20278;-74
2023/12/06 07:49:02;;;;;;;8.82;6.60;;;;;;;5.67;100.00;62577.00;5026554;28;20282;-75
2023/12/06 07:51:29;;;;;;;12.57;6.15;;;;;;;5.73;100.00;62585.19;5025590;28;20555;-74
2023/12/06 07:53:58;;;;;;;10.80;6.63;;;;;;;5.80;100.00;62594.94;5025984;28;20513;-74
2023/12/06 07:56:25;;;;;;;9.77;7.47;;;;;;;5.59;100.00;62576.34;5025958;28;20237;-76
2023/12/06 07:58:56;;;;;;;13.90;7.90;;;;;;;5.62;100.00;62576.91;5025172;28;20991;-74
2023/12/06 08:01:28;;;;;;;13.05;7.93;;;;;;;5.67;100.00;62577.00;5022808;28;20209;-74
2023/12/06 08:03:55;;;;;;;9.75;8.15;;;;;;;5.61;100.00;62573.34;5025706;28;20298;-74
2023/12/06 08:06:23;;;;;;;9.20;7.50;;;;;;;5.45;100.00;62559.38;5021367;28;20382;-75
2023/12/06 08:08:50;;;;;;;9.70;7.82;;;;;;;5.45;100.00;62561.41;5024504;28;20523;-75
2023/12/06 08:11:19;;;;;;;8.32;6.85;;;;;;;5.34;100.00;62545.53;5021939;28;20215;-75
2023/12/06 08:13:46;;;;;;;10.13;7.45;;;;;;;5.32;100.00;62542.94;5025076;28;20233;-76
2023/12/06 08:16:12;;;;;;;9.18;7.43;;;;;;;5.26;100.00;62539.81;5025181;28;20230;-74
2023/12/06 08:18:40;;;;;;;12.32;9.25;;;;;;;5.26;100.00;62542.34;5024301;28;20236;-75
2023/12/06 08:21:08;;;;;;;10.93;7.80;;;;;;;5.29;100.00;62539.88;5024380;28;20213;-74
2023/12/06 08:23:35;;;;;;;9.75;7.85;;;;;;;5.24;100.00;62534.72;5024289;28;20273;-75
2023/12/06 08:26:02;;;;;;;12.60;8.55;;;;;;;5.37;100.00;62553.16;5024215;28;20394;-75
2023/12/06 08:28:30;;;;;;;12.95;8.35;;;;;;;5.42;100.00;62553.25;5023360;28;20408;-74
2023/12/06 08:30:57;;;;;;;11.77;8.30;;;;;;;5.45;100.00;62559.38;5020554;28;20272;-74
2023/12/06 08:33:24;;;;;;;10.30;7.97;;;;;;;5.32;100.00;62545.47;5024223;28;20317;-74
2023/12/06 08:35:52;;;;;;;10.90;8.18;;;;;;;5.45;100.00;62556.34;5023322;28;20230;-74
2023/12/06 08:38:19;;;;;;;12.20;7.45;;;;;;;5.53;100.00;62567.63;5023385;28;20226;-74
2023/12/06 08:40:45;;;;;;;10.55;7.63;;;;;;;5.55;100.00;62564.13;5019748;28;20210;-74
2023/12/06 08:43:13;;;;;;;9.13;6.60;;;;;;;5.67;100.00;62581.53;5022148;28;20218;-74
2023/12/06 08:45:41;;;;;;;10.85;7.38;;;;;;;5.66;100.00;62578.00;5020679;28;20206;-75
2023/12/06 08:48:08;;;;;;;10.93;7.75;;;;;;;5.74;100.00;62586.75;5023448;28;20272;-75
2023/12/06 08:50:35;;;;;;;12.13;7.43;;;;;;;5.63;100.00;62577.41;5019753;28;20203;-75
2023/12/06 08:53:03;;;;;;;8.77;7.28;;;;;;;5.67;100.00;62574.47;5021962;28;20286;-74
2023/12/06 08:55:30;;;;;;;10.55;7.65;;;;;;;5.58;100.00;62570.25;5022179;28;20423;-75
2023/12/06 08:57:57;;;;;;;11.15;7.20;;;;;;;5.57;100.00;62574.28;5023576;28;20532;-75
2023/12/06 09:00:24;;;;;;;12.30;7.80;;;;;;;5.77;100.00;62592.38;5019616;28;20209;-75
2023/12/06 09:02:52;;;;;;;9.82;8.02;;;;;;;5.91;100.00;62603.25;5023792;28;20229;-75
2023/12/06 09:05:20;;;;;;;8.88;7.13;;;;;;;6.05;100.00;62617.69;5024893;28;20203;-75
2023/12/06 09:07:47;;;;;;;10.40;7.85;;;;;;;6.06;100.00;62619.22;5024390;28;20261;-74
2023/12/06 09:10:15;;;;;;;10.02;7.78;;;;;;;6.05;100.00;62617.69;5024144;28;20218;-76
2023/12/06 09:12:42;;;;;;;9.98;7.75;;;;;;;6.20;100.00;62638.19;5022225;28;20220;-76
2023/12/06 09:15:09;;;;;;;9.60;6.90;;;;;;;6.22;100.00;62637.72;5013715;28;20210;-74
2023/12/06 09:17:36;;;;;;;8.02;6.88;;;;;;;6.20;100.00;62638.19;5021882;28;20234;-75
2023/12/06 09:20:06;;;;;;;8.73;7.18;;;;;;;6.21;100.00;62637.22;5018728;28;20527;-75
2023/12/06 09:22:33;;;;;;;9.90;7.15;;;;;;;6.33;100.00;62644.00;5024703;28;20226;-74
2023/12/06 09:25:00;;;;;;;11.43;8.50;;;;;;;6.22;100.00;62635.19;5024527;28;20279;-74
2023/12/06 09:27:31;;;;;;;11.43;7.88;;;;;;;6.01;100.00;62616.59;5024370;28;20226;-74
2023/12/06 09:29:57;;;;;;;9.82;7.30;;;;;;;6.10;100.00;62623.34;5024567;28;20230;-74
2023/12/06 09:32:25;;;;;;;8.68;6.10;;;;;;;6.08;100.00;62618.22;5024339;28;20246;-74
2023/12/06 09:34:52;;;;;;;8.20;6.57;;;;;;;6.22;100.00;62633.19;5024298;28;20245;-73
2023/12/06 09:37:20;;;;;;;9.52;5.85;;;;;;;6.37;100.00;62651.19;5023638;28;20309;-74
2023/12/06 09:39:47;;;;;;;8.57;5.70;;;;;;;6.47;100.00;62658.44;5023671;28;20206;-74
2023/12/06 09:42:14;;;;;;;6.15;5.05;;;;;;;6.45;100.00;62661.97;5023863;28;20487;-74
2023/12/06 09:44:43;;;;;;;6.18;5.50;;;;;;;6.35;100.00;62648.59;5023908;28;20217;-74
2023/12/06 09:47:11;;;;;;;7.38;5.72;;;;;;;6.16;100.00;62629.53;5023606;28;20230;-75
2023/12/06 09:49:38;;;;;;;5.55;4.75;;;;;;;6.27;100.00;62633.28;5023687;28;20249;-75
2023/12/06 09:52:11;;;;;;;5.93;4.88;;;;;;;6.18;100.00;62631.59;5023828;28;20266;-73
2023/12/06 09:54:42;;;;;;;8.05;5.32;;;;;;;6.31;100.00;62650.06;5023551;28;20262;-73
2023/12/06 09:57:10;;;;;;;7.05;6.03;;;;;;;6.33;100.00;62649.06;5023660;28;20411;-73
2023/12/06 09:59:37;;;;;;;7.25;5.70;;;;;;;6.48;100.00;62664.53;5021076;28;20401;-74
2023/12/06 10:02:04;;;;;;;8.30;6.28;;;;;;;6.51;100.00;62670.16;5024127;28;20226;-74
2023/12/06 10:04:32;;;;;;;6.20;5.60;;;;;;;6.41;100.00;62654.78;5018763;28;20228;-74
2023/12/06 10:07:00;;;;;;;5.82;5.22;;;;;;;6.51;100.00;62668.13;5022446;28;20404;-73
2023/12/06 10:09:27;;;;;;;10.60;6.75;;;;;;;6.55;100.00;62671.75;5023677;28;20567;-73
2023/12/06 10:12:13;;;;;;;6.72;5.88;;;;;;;6.61;100.00;62673.38;5023809;28;20230;-73
2023/12/06 10:14:40;;;;;;;5.35;4.85;;;;;;;6.55;100.00;62667.22;5010944;28;20207;-72
2023/12/06 10:17:10;;;;;;;7.05;4.45;;;;;;;6.59;100.00;62673.34;5010081;28;20272;-76
2023/12/06 10:19:37;;;;;;;4.85;4.47;;;;;;;6.40;100.00;62654.25;5017081;28;20211;-73
2023/12/06 10:22:05;;;;;;;4.68;4.25;;;;;;;6.19;100.00;62630.09;5023767;28;20298;-73
2023/12/06 10:24:32;;;;;;;3.50;3.20;;;;;;;6.28;100.00;62644.41;5023275;28;20229;-73
2023/12/06 10:27:08;;;;;;;4.38;3.97;;;;;;;6.42;100.00;62660.88;5023531;28;20268;-73
2023/12/06 10:29:36;;;;;;;6.05;5.25;;;;;;;6.54;100.00;62670.72;5023793;28;20519;-74
2023/12/06 10:32:03;;;;;;;6.30;5.10;;;;;;;6.46;100.00;62659.94;5023413;28;20231;-72
2023/12/06 10:34:32;;;;;;;6.90;5.45;;;;;;;6.62;100.00;62676.97;5023901;28;20222;-73
2023/12/06 10:37:00;;;;;;;5.15;4.65;;;;;;;6.63;100.00;62680.50;5023949;28;20308;-73
2023/12/06 10:39:27;;;;;;;5.50;5.00;;;;;;;6.57;100.00;62671.28;5023750;28;20214;-73
2023/12/06 10:41:56;;;;;;;5.43;4.93;;;;;;;6.46;100.00;62660.47;5023564;28;20306;-73
2023/12/06 10:44:24;;;;;;;4.57;4.20;;;;;;;6.41;100.00;62655.31;5023644;28;20213;-74
2023/12/06 10:46:53;;;;;;;3.80;3.53;;;;;;;6.30;100.00;62649.00;5023034;28;20231;-73
2023/12/06 10:49:21;;;;;;;5.05;4.65;;;;;;;6.23;100.00;62641.78;5022946;28;20225;-73
2023/12/06 10:51:49;;;;;;;4.53;4.20;;;;;;;6.34;100.00;62650.63;5023818;28;20557;-74
2023/12/06 10:54:18;;;;;;;5.05;4.65;;;;;;;6.54;100.00;62668.19;5022974;28;20245;-74
2023/12/06 10:56:45;;;;;;;5.40;4.90;;;;;;;6.32;100.00;62646.03;5023117;28;20305;-74
2023/12/06 10:59:14;;;;;;;4.82;4.43;;;;;;;6.14;100.00;62626.97;5024139;28;20289;-73
2023/12/06 11:01:43;;;;;;;5.05;4.55;;;;;;;6.27;100.00;62640.88;5026734;28;20549;-74
2023/12/06 11:04:11;;;;;;;5.40;4.90;;;;;;;6.39;100.00;62655.78;5015907;28;20233;-73
2023/12/06 11:06:48;;;;;;;5.13;4.70;;;;;;;6.36;100.00;62650.16;5025108;28;20231;-75
2023/12/06 11:09:30;;;;;;;5.72;5.10;;;;;;;6.28;100.00;62644.41;5021520;28;20282;-74
2023/12/06 11:12:08;;;;;;;5.13;4.47;;;;;;;6.39;100.00;62655.78;5020478;28;20218;-74
2023/12/06 11:14:51;;;;;;;4.97;4.57;;;;;;;6.38;100.00;62656.75;5023304;28;20225;-73
2023/12/06 11:17:37;;;;;;;3.92;3.65;;;;;;;6.33;100.00;62647.06;5023042;28;20230;-74
2023/12/06 11:20:04;;;;;;;4.97;4.50;;;;;;;6.35;100.00;62646.59;5022065;28;20309;-73
2023/12/06 11:22:31;;;;;;;5.90;4.40;;;;;;;6.28;100.00;62644.41;5019556;28;20223;-74
2023/12/06 11:25:00;;;;;;;4.72;4.32;;;;;;;6.26;100.00;62639.84;5024270;28;20222;-73
2023/12/06 11:27:27;;;;;;;6.72;4.47;;;;;;;6.45;100.00;62661.97;5024237;28;20227;-74
2023/12/06 11:29:54;;;;;;;4.05;3.75;;;;;;;6.41;100.00;62654.78;5024271;28;20217;-74
2023/12/06 11:32:23;;;;;;;4.28;3.97;;;;;;;6.49;100.00;62665.56;5024165;28;20218;-74
2023/12/06 11:34:56;;;;;;;7.43;5.72;;;;;;;6.46;100.00;62660.47;5023519;28;20207;-74